createdAt,value
2018-11-12T11:25:48.919Z,5293
2018-11-12T11:26:08.455Z,5265
2018-11-12T11:26:28.013Z,5175
2018-11-12T11:26:47.589Z,4734
2018-11-12T11:27:07.100Z,4820
2018-11-12T11:27:26.610Z,4936
2018-11-12T11:27:46.184Z,4788
2018-11-12T11:28:05.714Z,4616
2018-11-12T11:28:25.337Z,4469
2018-11-12T11:28:44.900Z,4501
2018-11-12T11:29:04.518Z,4460
2018-11-12T11:29:24.110Z,4470
2018-11-12T11:29:43.635Z,4457
2018-11-12T11:30:06.873Z,4469
2018-11-12T11:30:26.398Z,4378
2018-11-12T11:30:45.942Z,4454
2018-11-12T11:31:05.903Z,4421
2018-11-12T11:31:25.504Z,2295
2018-11-12T11:31:45.075Z,4472
2018-11-12T11:32:04.643Z,4631
2018-11-12T11:32:24.343Z,4602
2018-11-12T11:36:58.445Z,4210
2018-11-12T11:37:37.084Z,4111
2018-11-12T11:37:56.935Z,4073
2018-11-12T11:38:16.597Z,4048
2018-11-12T11:38:36.195Z,4027
2018-11-12T11:38:57.135Z,4019
2018-11-12T11:39:16.748Z,4002
2018-11-12T11:39:36.449Z,4003
2018-11-12T11:39:56.360Z,4008
2018-11-12T11:40:16.062Z,4014
2018-11-12T11:40:36.190Z,4026
2018-11-12T11:40:55.897Z,4044
2018-11-12T11:41:15.495Z,4073
2018-11-12T11:41:35.134Z,4122
2018-11-12T11:41:54.882Z,4121
2018-11-12T11:42:14.578Z,4184
2018-11-12T11:42:34.264Z,4163
2018-11-12T11:42:53.965Z,4178
2018-11-12T11:43:13.692Z,4213
2018-11-12T11:43:33.336Z,4277
2018-11-12T11:43:53.019Z,4387
2018-11-12T11:44:12.896Z,4447
2018-11-12T11:44:32.709Z,4780
2018-11-12T11:44:52.549Z,4593
2018-11-12T11:45:12.472Z,4532
2018-11-12T11:45:32.301Z,4628
2018-11-12T11:45:52.151Z,4615
2018-11-12T11:46:11.993Z,4903
2018-11-12T11:46:32.729Z,4998
2018-11-12T11:46:52.663Z,5069
2018-11-12T11:47:13.441Z,4931
2018-11-12T11:47:33.264Z,4873
2018-11-12T11:47:52.971Z,4794
2018-11-12T11:48:12.482Z,4778
2018-11-12T11:48:32.021Z,4682
2018-11-12T11:48:51.755Z,4637
2018-11-12T11:49:11.280Z,4729
2018-11-12T11:49:31.904Z,4696
2018-11-12T11:49:51.531Z,4717
2018-11-12T11:50:11.246Z,4685
2018-11-12T11:50:30.941Z,4626
2018-11-12T11:50:50.426Z,4634
2018-11-12T11:51:10.056Z,4559
2018-11-12T11:51:29.657Z,4439
2018-11-12T11:51:49.269Z,4378
2018-11-12T11:52:08.936Z,4351
2018-11-12T11:52:28.590Z,4385
2018-11-12T11:52:48.214Z,4329
2018-11-12T11:53:07.857Z,4324
2018-11-12T11:53:27.484Z,4291
2018-11-12T11:53:47.101Z,4295
2018-11-12T11:54:06.737Z,4298
2018-11-12T11:54:26.372Z,4330
2018-11-12T11:54:45.993Z,4343
2018-11-12T11:55:05.654Z,4327
2018-11-12T11:55:25.318Z,4307
2018-11-12T11:55:44.914Z,4297
2018-11-12T11:56:04.518Z,4255
2018-11-12T11:56:24.193Z,4213
2018-11-12T11:56:43.843Z,4175
2018-11-12T11:57:03.437Z,4151
2018-11-12T11:57:23.069Z,4144
2018-11-12T11:57:42.813Z,4128
2018-11-12T11:58:02.325Z,4105
2018-11-12T11:58:21.929Z,4107
2018-11-12T11:58:41.555Z,4120
2018-11-12T11:59:01.168Z,4147
2018-11-12T11:59:20.869Z,4180
2018-11-12T11:59:40.496Z,4182
2018-11-12T12:00:00.164Z,4193
2018-11-12T12:00:19.844Z,4204
2018-11-12T12:00:39.508Z,4208
2018-11-12T12:00:59.214Z,4214
2018-11-12T12:01:18.890Z,4229
2018-11-12T12:01:38.558Z,4282
2018-11-12T12:01:58.138Z,4259
2018-11-12T12:02:17.883Z,4262
2018-11-12T12:02:37.456Z,4232
2018-11-12T12:02:57.156Z,4252
2018-11-12T12:03:16.737Z,4275
2018-11-12T12:03:36.363Z,4308
2018-11-12T12:03:55.990Z,4335
2018-11-12T12:04:16.632Z,4355
2018-11-12T12:04:36.250Z,4375
2018-11-12T12:04:56.875Z,4395
2018-11-12T12:05:16.506Z,4420
2018-11-12T12:05:36.149Z,4415
2018-11-12T12:05:55.765Z,4440
2018-11-12T12:06:15.523Z,4489
2018-11-12T12:06:35.170Z,4495
2018-11-12T12:06:54.781Z,4494
2018-11-12T12:07:15.488Z,4521
2018-11-12T12:07:35.400Z,4520
2018-11-12T12:07:55.049Z,4484
2018-11-12T12:08:14.669Z,4426
2018-11-12T12:08:34.337Z,4363
2018-11-12T12:08:54.054Z,4346
2018-11-12T12:09:13.636Z,4342
2018-11-12T12:09:33.187Z,4336
2018-11-12T12:09:52.799Z,4335
2018-11-12T12:10:12.436Z,4282
2018-11-12T12:10:32.070Z,4246
2018-11-12T12:10:51.695Z,4232
2018-11-12T12:11:11.362Z,4206
2018-11-12T12:11:30.988Z,4186
2018-11-12T12:11:50.606Z,4195
2018-11-12T12:12:10.304Z,4188
2018-11-12T12:12:30.000Z,4172
2018-11-12T12:12:49.805Z,4181
2018-11-12T12:13:09.464Z,4189
2018-11-12T12:13:29.155Z,4197
2018-11-12T12:13:49.166Z,4186
2018-11-12T12:14:09.026Z,4271
2018-11-12T12:14:29.110Z,4318
2018-11-12T12:14:49.127Z,4441
2018-11-12T12:15:10.963Z,4347
2018-11-12T12:15:30.749Z,4174
2018-11-12T12:15:50.398Z,4082
2018-11-12T12:16:11.155Z,4071
2018-11-12T12:16:31.114Z,4075
2018-11-12T12:16:50.895Z,4172
2018-11-12T12:17:10.701Z,4197
2018-11-12T12:17:30.557Z,4217
2018-11-12T12:17:50.172Z,4230
2018-11-12T12:18:09.938Z,4197
2018-11-12T12:18:29.719Z,4204
2018-11-12T12:18:49.601Z,4208
2018-11-12T12:19:10.365Z,4235
2018-11-12T12:19:29.975Z,4247
2018-11-12T12:19:49.636Z,4230
2018-11-12T12:20:09.266Z,4256
2018-11-12T12:20:29.050Z,4214
2018-11-12T12:20:49.554Z,4148
2018-11-12T12:21:09.374Z,4080
2018-11-12T12:21:29.063Z,4086
2018-11-12T12:21:48.768Z,4064
2018-11-12T12:22:08.807Z,4039
2018-11-12T12:22:28.472Z,4061
2018-11-12T12:22:48.095Z,4105
2018-11-12T12:23:07.743Z,4089
2018-11-12T12:23:27.359Z,4101
2018-11-12T12:23:47.048Z,4140
2018-11-12T12:24:06.896Z,4134
2018-11-12T12:24:26.652Z,4080
2018-11-12T12:24:46.682Z,4056
2018-11-12T12:25:06.337Z,4049
2018-11-12T12:25:27.009Z,4111
2018-11-12T12:25:46.613Z,4209
2018-11-12T12:26:06.279Z,4241
2018-11-12T12:26:26.930Z,4203
2018-11-12T12:26:46.657Z,4206
2018-11-12T12:27:06.493Z,4258
2018-11-12T12:27:26.503Z,4301
2018-11-12T12:27:46.353Z,4314
2018-11-12T12:28:06.298Z,4317
2018-11-12T12:28:26.174Z,4288
2018-11-12T12:28:45.942Z,4271
2018-11-12T12:29:05.995Z,4257
2018-11-12T12:29:26.726Z,4256
2018-11-12T12:29:46.543Z,4239
2018-11-12T12:30:06.247Z,4200
2018-11-12T12:30:26.073Z,4170
2018-11-12T12:30:45.869Z,4160
2018-11-12T12:31:05.519Z,4171
2018-11-12T12:31:25.520Z,4187
2018-11-12T12:31:45.514Z,4185
2018-11-12T12:32:05.601Z,4205
2018-11-12T12:32:25.364Z,4228
2018-11-12T12:32:45.236Z,4296
2018-11-12T12:33:04.780Z,4332
2018-11-12T12:33:24.504Z,4359
2018-11-12T12:33:44.360Z,4409
2018-11-12T12:34:04.185Z,4405
2018-11-12T12:34:23.678Z,4389
2018-11-12T12:34:43.423Z,4414
2018-11-12T12:35:02.969Z,4450
2018-11-12T12:35:22.709Z,4428
2018-11-12T12:35:42.357Z,4438
2018-11-12T12:36:02.235Z,4406
2018-11-12T12:36:22.078Z,4396
2018-11-12T12:36:41.713Z,4410
2018-11-12T12:37:01.199Z,4362
2018-11-12T12:37:20.871Z,4281
2018-11-12T12:37:40.901Z,4270
2018-11-12T12:38:00.616Z,4263
2018-11-12T12:38:20.226Z,4247
2018-11-12T12:38:39.857Z,4191
2018-11-12T12:38:59.515Z,4167
2018-11-12T12:39:19.360Z,4106
2018-11-12T12:39:39.039Z,4106
2018-11-12T12:39:58.806Z,4150
2018-11-12T12:40:18.763Z,4100
2018-11-12T12:40:38.910Z,4045
2018-11-12T12:40:58.889Z,3952
2018-11-12T12:41:18.876Z,3834
2018-11-12T12:41:38.781Z,3780
2018-11-12T12:41:58.503Z,3778
2018-11-12T12:42:18.314Z,3682
2018-11-12T12:42:38.274Z,3657
2018-11-12T12:42:58.120Z,3654
2018-11-12T12:43:17.896Z,3583
2018-11-12T12:43:37.588Z,3570
2018-11-12T12:43:58.065Z,3571
2018-11-12T12:44:18.167Z,3580
2018-11-12T12:44:37.942Z,3583
2018-11-12T12:44:58.148Z,3628
2018-11-12T12:45:18.124Z,3678
2018-11-12T12:45:37.823Z,3655
2018-11-12T12:45:57.348Z,3636
2018-11-12T12:46:16.949Z,3628
2018-11-12T12:46:36.600Z,3650
2018-11-12T12:46:56.221Z,3641
2018-11-12T12:47:15.852Z,3634
2018-11-12T12:47:35.476Z,3636
2018-11-12T12:47:55.221Z,3641
2018-11-12T12:48:15.418Z,3672
2018-11-12T12:48:35.054Z,3694
2018-11-12T12:48:54.682Z,3718
2018-11-12T12:49:14.361Z,3725
2018-11-12T12:49:34.208Z,3748
2018-11-12T12:49:53.742Z,3751
2018-11-12T12:50:13.358Z,3728
2018-11-12T12:50:32.983Z,3746
2018-11-12T12:50:52.590Z,3783
2018-11-12T21:31:18.249Z,1
2018-11-12T21:31:37.779Z,1
2018-11-12T21:31:57.284Z,1
2018-11-12T21:32:16.853Z,1
2018-11-12T21:32:36.497Z,0
2018-11-12T21:32:56.141Z,1
2018-11-12T21:33:15.675Z,0
2018-11-12T21:33:35.226Z,0
2018-11-12T21:33:54.767Z,0
2018-11-12T21:34:14.326Z,0
2018-11-12T21:34:33.851Z,0
2018-11-12T21:34:53.630Z,0
2018-11-12T21:35:13.355Z,0
2018-11-12T21:35:32.873Z,0
2018-11-12T21:35:52.460Z,0
2018-11-12T21:36:11.979Z,0
2018-11-12T21:36:32.808Z,0
2018-11-12T21:36:52.595Z,0
2018-11-12T21:37:12.291Z,0
2018-11-12T21:37:31.726Z,0
2018-11-12T21:37:51.229Z,0
2018-11-12T21:38:12.235Z,0
2018-11-12T21:38:31.765Z,0
2018-11-12T21:38:51.358Z,0
2018-11-12T21:39:10.979Z,0
2018-11-12T21:39:30.630Z,0
2018-11-12T21:39:50.280Z,0
2018-11-12T21:40:09.894Z,0
2018-11-12T21:40:29.481Z,0
2018-11-12T21:40:49.013Z,0
2018-11-12T21:41:08.611Z,0
2018-11-12T21:41:28.210Z,0
2018-11-12T21:41:47.783Z,0
2018-11-12T21:42:07.313Z,0
2018-11-12T21:42:26.842Z,0
2018-11-12T21:42:46.413Z,0
2018-11-12T21:43:06.073Z,0
2018-11-12T21:43:25.740Z,0
2018-11-12T21:43:45.196Z,0
2018-11-12T21:44:04.694Z,0
2018-11-12T21:44:24.324Z,0
2018-11-12T21:44:43.850Z,0
2018-11-12T21:45:03.382Z,0
2018-11-12T21:45:22.936Z,0
2018-11-12T21:45:51.186Z,0
2018-11-12T21:46:10.713Z,0
2018-11-12T21:46:30.326Z,0
2018-11-12T21:46:49.904Z,0
2018-11-12T21:47:10.527Z,0
2018-11-12T21:47:30.577Z,0
2018-11-12T21:47:50.327Z,0
2018-11-12T21:48:10.072Z,0
2018-11-12T21:48:29.571Z,0
2018-11-12T21:48:49.353Z,0
2018-11-12T21:49:09.012Z,0
2018-11-12T21:49:28.626Z,0
2018-11-12T21:49:48.272Z,0
2018-11-12T21:50:07.846Z,0
2018-11-12T21:50:27.295Z,0
2018-11-12T21:50:46.967Z,0
2018-11-12T21:51:06.458Z,0
2018-11-12T21:51:25.953Z,0
2018-11-12T21:51:45.547Z,0
2018-11-12T21:52:06.084Z,0
2018-11-12T21:52:25.689Z,0
2018-11-12T21:52:45.307Z,0
2018-11-12T21:53:04.881Z,0
2018-11-12T21:53:24.461Z,0
2018-11-12T21:53:44.055Z,0
2018-11-12T21:54:03.695Z,0
2018-11-12T21:54:23.911Z,0
2018-11-12T21:54:43.494Z,0
2018-11-12T21:55:03.035Z,0
2018-11-12T21:55:22.569Z,0
2018-11-12T21:55:42.107Z,0
2018-11-12T21:56:01.673Z,0
2018-11-12T21:56:21.231Z,0
2018-11-12T21:56:40.836Z,0
2018-11-12T21:57:00.537Z,0
2018-11-12T21:57:21.197Z,0
2018-11-12T21:57:40.711Z,0
2018-11-12T21:58:00.234Z,0
2018-11-12T21:58:19.777Z,0
2018-11-12T21:58:39.349Z,0
2018-11-12T21:58:58.789Z,0
2018-11-12T21:59:22.330Z,0
2018-11-12T21:59:41.888Z,0
2018-11-12T22:00:02.405Z,0
2018-11-12T22:00:22.013Z,0
2018-11-12T22:00:43.538Z,0
2018-11-12T22:01:04.112Z,0
2018-11-12T22:01:23.693Z,0
2018-11-12T22:01:44.292Z,0
2018-11-12T22:02:03.832Z,0
2018-11-12T22:02:23.585Z,0
2018-11-12T22:02:43.181Z,0
2018-11-12T22:03:03.687Z,0
2018-11-12T22:03:24.784Z,0
2018-11-12T22:03:47.344Z,0
2018-11-12T22:04:07.231Z,0
2018-11-12T22:04:27.136Z,0
2018-11-12T22:04:46.727Z,0
2018-11-12T22:05:06.405Z,0
2018-11-12T22:05:26.877Z,0
2018-11-12T22:05:46.602Z,0
2018-11-12T22:06:06.250Z,0
2018-11-12T22:06:26.113Z,0
2018-11-12T22:06:45.804Z,0
2018-11-12T22:07:05.413Z,0
2018-11-12T22:07:25.157Z,0
2018-11-12T22:07:44.785Z,0
2018-11-12T22:08:04.358Z,0
2018-11-12T22:08:23.974Z,0
2018-11-12T22:08:43.555Z,0
2018-11-12T22:09:03.073Z,0
2018-11-12T22:09:22.750Z,0
2018-11-12T22:09:42.304Z,0
2018-11-12T22:10:02.068Z,0
2018-11-12T22:10:22.678Z,0
2018-11-12T22:10:42.288Z,0
2018-11-12T22:11:01.849Z,0
2018-11-12T22:11:21.512Z,0
2018-11-12T22:11:41.092Z,0
2018-11-12T22:12:00.674Z,0
2018-11-12T22:12:20.293Z,0
2018-11-12T22:12:39.873Z,0
2018-11-12T22:12:59.571Z,0
2018-11-12T22:13:19.141Z,0
2018-11-12T22:13:38.736Z,0
2018-11-12T22:13:59.294Z,0
2018-11-12T22:14:19.149Z,0
2018-11-12T22:14:38.689Z,0
2018-11-12T22:14:58.459Z,0
2018-11-12T22:15:17.976Z,0
2018-11-12T22:15:37.495Z,0
2018-11-12T22:15:57.075Z,0
2018-11-12T22:16:16.725Z,0
2018-11-12T22:16:36.301Z,0
2018-11-12T22:16:56.340Z,0
2018-11-12T22:17:16.125Z,0
2018-11-12T22:17:35.837Z,0
2018-11-12T22:17:55.361Z,0
2018-11-12T22:18:14.967Z,0
2018-11-12T22:18:34.697Z,0
2018-11-12T22:18:54.182Z,0
2018-11-12T22:19:14.031Z,0
2018-11-12T22:19:34.009Z,0
2018-11-12T22:19:53.372Z,0
2018-11-12T22:20:12.843Z,0
2018-11-12T22:20:32.388Z,0
2018-11-12T22:20:52.095Z,0
2018-11-12T22:21:11.655Z,0
2018-11-12T22:21:31.469Z,0
2018-11-12T22:21:51.008Z,0
2018-11-12T22:22:10.627Z,0
2018-11-12T22:22:30.201Z,0
2018-11-12T22:22:50.761Z,0
2018-11-12T22:23:10.308Z,0
2018-11-12T22:23:29.862Z,0
2018-11-12T22:23:49.458Z,0
2018-11-12T22:24:09.013Z,0
2018-11-12T22:24:29.562Z,0
2018-11-12T22:24:49.240Z,0
2018-11-12T22:25:09.126Z,0
2018-11-12T22:25:28.987Z,0
2018-11-12T22:25:48.591Z,0
2018-11-12T22:26:08.194Z,0
2018-11-12T22:26:27.745Z,0
2018-11-12T22:26:47.589Z,0
2018-11-12T22:27:07.407Z,0
2018-11-12T22:27:27.151Z,0
2018-11-12T22:27:46.738Z,0
2018-11-12T22:28:07.402Z,0
2018-11-12T22:28:27.136Z,0
2018-11-12T22:28:46.677Z,0
2018-11-12T22:29:06.291Z,0
2018-11-12T22:29:26.781Z,0
2018-11-12T22:29:46.337Z,0
2018-11-12T22:30:05.851Z,0
2018-11-12T22:30:25.500Z,0
2018-11-12T22:30:45.218Z,0
2018-11-12T22:31:07.519Z,0
2018-11-12T22:31:29.121Z,0
2018-11-12T22:31:49.652Z,0
2018-11-12T22:32:09.378Z,0
2018-11-12T22:32:28.903Z,0
2018-11-12T22:32:49.026Z,0
2018-11-12T22:33:08.580Z,0
2018-11-12T22:33:28.117Z,0
2018-11-12T22:33:47.665Z,0
2018-11-12T22:34:07.358Z,0
2018-11-12T22:34:26.946Z,0
2018-11-12T22:34:46.565Z,0
2018-11-12T22:35:06.187Z,0
2018-11-12T22:35:25.683Z,0
2018-11-12T22:35:45.293Z,0
2018-11-12T22:36:04.821Z,0
2018-11-12T22:36:25.526Z,0
2018-11-12T22:36:45.677Z,0
2018-11-12T22:37:05.298Z,0
2018-11-12T22:37:24.961Z,0
2018-11-12T22:37:45.157Z,0
2018-11-12T22:38:04.700Z,0
2018-11-12T22:38:24.294Z,0
2018-11-12T22:38:43.821Z,0
2018-11-12T22:39:03.550Z,0
2018-11-12T22:39:23.346Z,0
2018-11-12T22:39:42.972Z,0
2018-11-12T22:40:02.677Z,0
2018-11-12T22:40:22.155Z,0
2018-11-12T22:40:41.675Z,0
2018-11-12T22:41:01.295Z,0
2018-11-12T22:41:20.912Z,0
2018-11-12T22:41:40.517Z,0
2018-11-12T22:42:00.420Z,0
2018-11-12T22:42:20.416Z,0
2018-11-12T22:42:40.039Z,0
2018-11-12T22:42:59.772Z,0
2018-11-12T22:43:19.450Z,0
2018-11-12T22:43:39.003Z,0
2018-11-12T22:43:58.538Z,0
2018-11-12T22:44:18.092Z,0
2018-11-12T22:44:37.656Z,0
2018-11-12T22:44:58.177Z,0
2018-11-12T22:45:17.775Z,0
2018-11-12T22:45:37.335Z,0
2018-11-12T22:45:56.919Z,0
2018-11-12T22:46:16.477Z,0
2018-11-12T22:46:36.158Z,0
2018-11-12T22:46:55.732Z,0
2018-11-12T22:47:15.308Z,0
2018-11-12T22:47:35.985Z,0
2018-11-12T22:47:55.545Z,0
2018-11-12T22:48:15.100Z,0
2018-11-12T22:48:34.670Z,0
2018-11-12T22:48:54.224Z,0
2018-11-12T22:49:14.834Z,0
2018-11-12T22:49:34.481Z,0
2018-11-12T22:49:54.100Z,0
2018-11-12T22:50:13.686Z,0
2018-11-12T22:50:33.279Z,0
2018-11-12T22:50:52.869Z,0
2018-11-12T22:51:12.552Z,0
2018-11-12T22:51:32.098Z,0
2018-11-12T22:51:51.750Z,0
2018-11-12T22:52:11.311Z,0
2018-11-12T22:52:30.906Z,0
2018-11-12T22:52:50.460Z,0
2018-11-12T22:53:11.005Z,0
2018-11-12T22:53:30.701Z,0
2018-11-12T22:53:50.272Z,0
2018-11-12T22:54:09.998Z,0
2018-11-12T22:54:29.455Z,0
2018-11-12T22:54:49.083Z,0
2018-11-12T22:55:08.846Z,0
2018-11-12T22:55:28.351Z,0
2018-11-12T22:55:47.866Z,0
2018-11-12T22:56:07.422Z,0
2018-11-12T22:56:26.936Z,0
2018-11-12T22:56:46.494Z,0
2018-11-12T22:57:07.023Z,0
2018-11-12T22:57:26.569Z,0
2018-11-12T22:57:46.180Z,0
2018-11-12T22:58:05.708Z,0
2018-11-12T22:58:25.278Z,0
2018-11-12T22:58:44.837Z,0
2018-11-12T22:59:04.428Z,0
2018-11-12T22:59:25.000Z,0
2018-11-12T22:59:44.630Z,0
2018-11-12T23:00:04.108Z,0
2018-11-12T23:00:23.701Z,0
2018-11-12T23:00:43.292Z,0
2018-11-12T23:01:02.896Z,0
2018-11-12T23:01:23.537Z,0
2018-11-12T23:01:44.180Z,0
2018-11-12T23:02:03.736Z,0
2018-11-12T23:02:23.283Z,0
2018-11-12T23:02:42.975Z,0
2018-11-12T23:03:03.515Z,0
2018-11-12T23:03:23.112Z,0
2018-11-12T23:03:42.938Z,0
2018-11-12T23:04:02.566Z,0
2018-11-12T23:04:22.126Z,0
2018-11-12T23:04:41.715Z,0
2018-11-12T23:05:01.246Z,0
2018-11-12T23:05:21.901Z,0
2018-11-12T23:05:41.611Z,0
2018-11-12T23:06:01.223Z,0
2018-11-12T23:06:20.740Z,0
2018-11-12T23:06:40.279Z,0
2018-11-12T23:06:59.839Z,0
2018-11-12T23:07:19.554Z,0
2018-11-12T23:07:39.112Z,0
2018-11-12T23:07:58.727Z,0
2018-11-12T23:08:18.359Z,0
2018-11-12T23:08:37.919Z,0
2018-11-12T23:08:58.620Z,0
2018-11-12T23:09:18.215Z,0
2018-11-12T23:09:37.774Z,0
2018-11-12T23:09:57.348Z,0
2018-11-12T23:10:17.419Z,0
2018-11-12T23:10:36.996Z,0
2018-11-12T23:10:56.521Z,0
2018-11-12T23:11:16.052Z,0
2018-11-12T23:11:35.619Z,0
2018-11-12T23:11:55.189Z,0
2018-11-12T23:12:14.774Z,0
2018-11-12T23:12:34.398Z,0
2018-11-12T23:12:53.853Z,0
2018-11-12T23:13:13.389Z,0
2018-11-12T23:13:32.933Z,0
2018-11-12T23:13:52.562Z,0
2018-11-12T23:14:12.081Z,0
2018-11-12T23:14:32.618Z,0
2018-11-12T23:14:52.157Z,0
2018-11-12T23:15:12.754Z,0
2018-11-12T23:15:32.291Z,0
2018-11-12T23:15:52.073Z,0
2018-11-12T23:16:11.611Z,0
2018-11-12T23:16:31.189Z,0
2018-11-12T23:16:50.813Z,0
2018-11-12T23:17:10.392Z,0
2018-11-12T23:17:29.965Z,0
2018-11-12T23:17:49.579Z,0
2018-11-12T23:18:09.227Z,0
2018-11-12T23:18:28.811Z,0
2018-11-12T23:18:49.347Z,0
2018-11-12T23:19:08.980Z,0
2018-11-12T23:19:29.356Z,0
2018-11-12T23:19:49.027Z,0
2018-11-12T23:20:08.485Z,0
2018-11-12T23:20:28.012Z,0
2018-11-12T23:20:47.574Z,0
2018-11-12T23:21:08.086Z,0
2018-11-12T23:21:27.648Z,0
2018-11-12T23:21:47.184Z,0
2018-11-12T23:22:06.717Z,0
2018-11-12T23:22:26.296Z,0
2018-11-12T23:22:45.885Z,0
2018-11-12T23:23:05.501Z,0
2018-11-12T23:23:25.027Z,0
2018-11-12T23:23:44.907Z,0
2018-11-12T23:24:05.025Z,0
2018-11-12T23:24:24.513Z,0
2018-11-12T23:24:44.180Z,0
2018-11-12T23:25:03.896Z,0
2018-11-12T23:25:23.654Z,0
2018-11-12T23:25:43.273Z,0
2018-11-12T23:26:02.997Z,0
2018-11-12T23:26:22.598Z,0
2018-11-12T23:26:43.138Z,0
2018-11-12T23:27:02.850Z,0
2018-11-12T23:27:22.439Z,0
2018-11-12T23:27:42.126Z,0
2018-11-12T23:28:02.145Z,0
2018-11-12T23:28:21.755Z,0
2018-11-12T23:28:41.424Z,0
2018-11-12T23:29:00.959Z,0
2018-11-12T23:29:20.588Z,0
2018-11-12T23:29:40.271Z,0
2018-11-12T23:29:59.783Z,0
2018-11-12T23:30:19.316Z,0
2018-11-12T23:30:38.851Z,0
2018-11-12T23:30:58.434Z,0
2018-11-12T23:31:17.968Z,0
2018-11-12T23:31:37.523Z,0
2018-11-12T23:31:57.052Z,0
2018-11-12T23:32:16.574Z,0
2018-11-12T23:32:36.246Z,0
2018-11-12T23:32:55.784Z,0
2018-11-12T23:33:15.363Z,0
2018-11-12T23:33:35.100Z,0
2018-11-12T23:33:54.800Z,0
2018-11-12T23:34:14.365Z,0
2018-11-12T23:34:33.877Z,0
2018-11-12T23:34:53.461Z,0
2018-11-12T23:35:13.047Z,0
2018-11-12T23:35:32.704Z,0
2018-11-12T23:35:54.035Z,0
2018-11-12T23:36:13.690Z,0
2018-11-12T23:36:33.333Z,0
2018-11-12T23:36:53.191Z,0
2018-11-12T23:37:14.087Z,0
2018-11-12T23:37:33.732Z,0
2018-11-12T23:37:53.587Z,0
2018-11-12T23:38:13.230Z,0
2018-11-12T23:38:33.321Z,0
2018-11-12T23:38:53.900Z,0
2018-11-12T23:39:13.474Z,0
2018-11-12T23:39:33.125Z,0
2018-11-12T23:39:53.683Z,0
2018-11-12T23:40:13.294Z,0
2018-11-12T23:40:32.860Z,0
2018-11-12T23:40:54.047Z,0
2018-11-12T23:41:13.777Z,0
2018-11-12T23:41:33.311Z,0
2018-11-12T23:41:53.910Z,0
2018-11-12T23:42:13.455Z,0
2018-11-12T23:42:33.113Z,0
2018-11-12T23:42:52.644Z,0
2018-11-12T23:43:12.813Z,0
2018-11-12T23:43:32.406Z,0
2018-11-12T23:43:52.092Z,0
2018-11-12T23:44:11.819Z,0
2018-11-12T23:44:31.612Z,0
2018-11-12T23:44:51.287Z,0
2018-11-12T23:45:10.885Z,0
2018-11-12T23:45:30.410Z,0
2018-11-12T23:45:49.910Z,0
2018-11-12T23:46:09.769Z,0
2018-11-12T23:46:29.373Z,0
2018-11-12T23:46:48.857Z,0
2018-11-12T23:47:08.365Z,0
2018-11-12T23:47:28.306Z,0
2018-11-12T23:47:48.120Z,0
2018-11-12T23:48:07.745Z,0
2018-11-12T23:48:27.386Z,0
2018-11-12T23:48:47.977Z,0
2018-11-12T23:49:07.709Z,0
2018-11-12T23:49:27.865Z,0
2018-11-12T23:49:47.559Z,0
2018-11-12T23:50:07.339Z,0
2018-11-12T23:50:26.901Z,0
2018-11-12T23:50:47.089Z,0
2018-11-12T23:51:07.600Z,0
2018-11-12T23:51:27.270Z,0
2018-11-12T23:51:46.871Z,0
2018-11-12T23:52:06.579Z,0
2018-11-12T23:52:26.930Z,0
2018-11-12T23:52:46.545Z,0
2018-11-12T23:53:07.292Z,0
2018-11-12T23:53:26.935Z,0
2018-11-12T23:53:46.612Z,0
2018-11-12T23:54:06.307Z,0
2018-11-12T23:54:26.009Z,0
2018-11-12T23:54:46.159Z,0
2018-11-12T23:55:05.754Z,0
2018-11-12T23:55:27.118Z,0
2018-11-12T23:55:46.634Z,0
2018-11-12T23:56:06.927Z,0
2018-11-12T23:56:26.472Z,0
2018-11-12T23:56:46.088Z,0
2018-11-12T23:57:05.672Z,0
2018-11-12T23:57:25.787Z,0
2018-11-12T23:57:45.500Z,0
2018-11-12T23:58:06.120Z,0
2018-11-12T23:58:25.675Z,0
2018-11-12T23:58:45.325Z,0
2018-11-12T23:59:05.003Z,0
2018-11-12T23:59:25.503Z,0
2018-11-12T23:59:45.235Z,0
